Warken, Luxembourg
Current Conditions -  °F | °C
As of 2:20 AM on Thursday 27 Nov 2014 (Local Time) from ELLX Reporting Station
NA  
Wind Chill: 41°   Ceiling: NA
Heat Index: 41°   Visibility: NA
Dew Point: 41°   Wind: 3mph
Humidity: 100%   Direction: NA
Pressure: 29.83"   Gusts: NA
Location:  49.85°N, 6.1°E
Report Text: ELLX 270120Z AUTO VRB03KT //// 05/05 Q1010
Loading
Personal Weather Stations






























Interactive Weather Map New forecast layout! Learn more

10-Day Weather Forecast

Advertisements
Track Severe Weather on mobile